Time;durP1;ratioP1;P1;durP2;ratioP2;P2;SDS_P1;SDS_P2;PMS_P1;PMS_P2;Temp;Humidity;BMP_temperature;BMP_pressure;BME280_temperature;BME280_humidity;BME280_pressure;Samples;Min_cycle;Max_cycle;Signal;HPM_P1;HPM_P2
2023/09/09 00:01:58;;;;;;;8.27;5.13;;;19.10;99.90;;;19.45;63.97;95369.75;5087129;28;20469;-60
2023/09/09 00:04:25;;;;;;;12.70;4.53;;;19.10;99.90;;;19.39;63.66;95369.69;5083739;28;20866;-58
2023/09/09 00:06:55;;;;;;;8.63;4.77;;;19.00;99.90;;;19.34;64.43;95376.38;5085965;28;20564;-61
2023/09/09 00:09:23;;;;;;;4.40;4.10;;;19.00;99.90;;;19.30;64.53;95369.78;5084598;28;20469;-60
2023/09/09 00:11:50;;;;;;;5.00;4.30;;;18.90;99.90;;;19.28;65.24;95369.09;5080724;28;20902;-60
2023/09/09 00:14:17;;;;;;;11.83;4.57;;;18.90;99.90;;;19.24;65.18;95362.50;5082554;28;21105;-60
2023/09/09 00:16:45;;;;;;;6.30;4.47;;;18.90;99.90;;;19.21;65.24;95365.53;5082827;28;20780;-59
2023/09/09 00:19:12;;;;;;;7.07;4.60;;;18.80;99.90;;;19.18;65.03;95371.22;5083202;28;21002;-59
2023/09/09 00:21:39;;;;;;;4.80;4.40;;;18.80;99.90;;;19.14;65.25;95360.06;5078935;28;20447;-61
2023/09/09 00:24:09;;;;;;;5.07;4.20;;;18.80;99.90;;;19.12;66.05;95366.59;5079770;28;20479;-60
2023/09/09 00:26:36;;;;;;;8.47;4.37;;;18.70;99.90;;;19.09;65.73;95362.44;5071162;28;20455;-61
2023/09/09 00:29:04;;;;;;;6.60;4.33;;;18.70;99.90;;;19.05;65.66;95361.16;5070827;28;20486;-59
2023/09/09 00:31:31;;;;;;;11.83;4.77;;;18.70;99.90;;;19.02;65.92;95355.34;5079185;28;20534;-60
2023/09/09 00:33:58;;;;;;;7.73;4.40;;;18.70;99.90;;;19.01;66.98;95354.53;5080968;28;21005;-60
2023/09/09 00:36:26;;;;;;;5.43;5.03;;;18.60;99.90;;;18.98;65.80;95354.91;5083483;28;20479;-58
2023/09/09 00:38:53;;;;;;;8.33;5.60;;;18.60;99.90;;;18.95;66.21;95358.75;5082581;28;20474;-60
2023/09/09 00:41:23;;;;;;;6.47;5.10;;;18.60;99.90;;;18.92;66.71;95353.75;5082380;28;20858;-59
2023/09/09 00:43:50;;;;;;;7.73;4.70;;;18.50;99.90;;;18.92;66.64;95353.75;5079299;28;20478;-60
2023/09/09 00:46:18;;;;;;;8.60;4.40;;;18.50;99.90;;;18.91;66.82;95353.94;5080972;28;20465;-59
2023/09/09 00:48:45;;;;;;;5.47;4.47;;;18.50;99.90;;;18.90;67.68;95346.94;5082421;28;20487;-60
2023/09/09 00:51:13;;;;;;;8.13;4.93;;;18.50;99.90;;;18.89;67.28;95356.78;5083726;28;20470;-60
2023/09/09 00:53:40;;;;;;;5.93;4.50;;;18.50;99.90;;;18.88;67.58;95352.47;5085163;28;20498;-61
2023/09/09 00:56:08;;;;;;;14.60;5.43;;;18.50;99.90;;;18.88;67.15;95346.31;5080315;28;20450;-60
2023/09/09 00:58:36;;;;;;;5.93;3.83;;;18.50;99.90;;;18.85;67.24;95347.47;5080200;28;20503;-59
2023/09/09 01:01:04;;;;;;;12.13;5.50;;;18.50;99.90;;;18.84;67.60;95352.97;5080950;28;20462;-59
2023/09/09 01:03:31;;;;;;;11.90;4.90;;;18.50;99.90;;;18.78;67.75;95347.34;5082468;28;21114;-60
2023/09/09 01:05:59;;;;;;;5.67;3.90;;;18.50;99.90;;;18.80;67.74;95349.84;5080598;28;20479;-58
2023/09/09 01:08:27;;;;;;;7.13;5.17;;;18.40;99.90;;;18.80;68.23;95348.00;5081802;28;20466;-59
2023/09/09 01:10:54;;;;;;;5.23;4.40;;;18.40;99.90;;;18.80;67.96;95342.66;5080451;28;20890;-58
2023/09/09 01:13:22;;;;;;;7.57;4.07;;;18.40;99.90;;;18.84;68.04;95351.16;5080595;28;20486;-59
2023/09/09 01:15:50;;;;;;;7.40;5.17;;;18.40;99.90;;;18.88;68.03;95347.13;5080687;28;20919;-60
2023/09/09 01:18:18;;;;;;;7.63;4.10;;;18.50;99.90;;;18.90;68.00;95347.78;5080390;28;20503;-58
2023/09/09 01:21:00;;;;;;;15.00;4.70;;;18.50;99.90;;;18.94;68.78;95353.59;5082571;28;20801;-60
2023/09/09 01:23:28;;;;;;;17.43;4.50;;;18.50;99.90;;;18.95;67.72;95345.41;5083026;28;20467;-60
2023/09/09 01:25:55;;;;;;;8.43;4.63;;;18.50;99.90;;;18.98;68.00;95349.56;5082045;28;20453;-58
2023/09/09 01:28:23;;;;;;;7.83;4.43;;;18.50;99.90;;;19.00;67.85;95347.53;5077895;28;20550;-59
2023/09/09 01:30:50;;;;;;;6.20;4.40;;;18.60;99.90;;;19.03;67.60;95343.69;5081437;28;20454;-61
2023/09/09 01:33:17;;;;;;;4.40;4.00;;;18.60;99.90;;;19.04;67.81;95348.00;5082093;28;20490;-59
2023/09/09 01:35:46;;;;;;;8.60;5.40;;;18.60;99.90;;;19.03;67.94;95346.34;5080460;28;20511;-61
2023/09/09 01:38:13;;;;;;;15.23;11.27;;;18.60;99.90;;;19.07;68.16;95342.31;5078665;28;20455;-60
2023/09/09 01:40:42;;;;;;;17.30;10.20;;;18.60;99.90;;;19.08;67.44;95338.63;5083635;28;20468;-58
2023/09/09 01:43:09;;;;;;;9.97;8.47;;;18.60;99.90;;;19.07;67.68;95337.81;5081753;28;20446;-59
2023/09/09 01:45:36;;;;;;;7.60;6.30;;;18.70;99.90;;;19.08;67.82;95343.97;5078704;28;20465;-58
2023/09/09 01:48:05;;;;;;;16.30;6.03;;;18.70;99.90;;;19.08;68.13;95343.97;5084957;28;20459;-59
2023/09/09 01:50:32;;;;;;;13.30;5.70;;;18.70;99.90;;;19.08;67.90;95343.97;5077894;28;20459;-60
2023/09/09 01:53:01;;;;;;;15.33;6.40;;;18.60;99.90;;;19.07;67.52;95344.97;5084610;28;20458;-59
2023/09/09 01:55:29;;;;;;;6.30;5.67;;;18.60;99.90;;;19.07;67.18;95347.63;5080277;28;20816;-59
2023/09/09 01:57:57;;;;;;;7.63;5.20;;;18.70;99.90;;;19.03;67.01;95343.69;5084358;28;20446;-61
2023/09/09 02:00:27;;;;;;;12.17;4.83;;;18.60;99.90;;;18.99;66.94;95346.72;5084293;28;20560;-61
2023/09/09 02:02:54;;;;;;;7.80;5.50;;;18.60;99.90;;;18.94;67.03;95348.25;5084205;28;20454;-61
2023/09/09 02:05:22;;;;;;;6.20;4.97;;;18.50;99.90;;;18.89;66.36;95343.47;5082101;28;21058;-62
2023/09/09 02:07:49;;;;;;;6.40;4.50;;;18.50;99.90;;;18.82;66.87;95339.81;5081182;28;20443;-60
2023/09/09 02:10:16;;;;;;;8.03;4.60;;;18.40;99.90;;;18.78;66.62;95343.88;5080721;28;20501;-59
2023/09/09 02:12:44;;;;;;;9.30;5.30;;;18.30;99.90;;;18.72;66.73;95339.25;5081963;28;20442;-60
2023/09/09 02:15:13;;;;;;;5.40;4.87;;;18.30;99.90;;;18.66;66.59;95335.44;5082152;28;20494;-59
2023/09/09 02:17:40;;;;;;;7.10;4.97;;;18.30;99.90;;;18.61;66.50;95338.66;5079402;28;20462;-58
2023/09/09 02:20:09;;;;;;;7.63;4.80;;;18.20;99.90;;;18.54;67.34;95340.38;5079599;28;20473;-59
2023/09/09 02:22:36;;;;;;;5.70;4.23;;;18.20;99.90;;;18.49;67.05;95333.94;5081826;28;20458;-61
2023/09/09 02:25:05;;;;;;;8.43;4.73;;;18.10;99.90;;;18.44;66.85;95334.47;5083077;28;20470;-60
2023/09/09 02:27:32;;;;;;;15.03;5.33;;;18.10;99.90;;;18.42;67.13;95339.16;5079908;28;20447;-61
2023/09/09 02:29:59;;;;;;;11.93;5.43;;;18.00;99.90;;;18.38;67.24;95349.31;5080175;28;20555;-59
2023/09/09 02:32:28;;;;;;;4.87;4.33;;;18.00;99.90;;;18.33;67.80;95340.19;5080922;28;20455;-59
2023/09/09 02:34:57;;;;;;;8.33;5.20;;;18.00;99.90;;;18.30;67.18;95344.03;5084920;28;21036;-59
2023/09/09 02:37:25;;;;;;;8.30;4.77;;;17.90;99.90;;;18.24;67.64;95345.56;5081609;28;20462;-61
2023/09/09 02:39:52;;;;;;;7.10;5.73;;;17.90;99.90;;;18.21;67.87;95345.91;5081984;28;20475;-60
2023/09/09 02:42:20;;;;;;;7.03;5.03;;;17.80;99.90;;;18.18;67.49;95345.44;5079446;28;20815;-60
2023/09/09 02:44:49;;;;;;;10.00;5.50;;;17.80;99.90;;;18.13;67.26;95345.97;5081383;28;20839;-59
2023/09/09 02:47:16;;;;;;;5.73;5.23;;;17.80;99.90;;;18.10;67.48;95348.97;5082862;28;20453;-60
2023/09/09 02:49:45;;;;;;;9.40;5.70;;;17.70;99.90;;;18.06;67.75;95342.34;5082622;28;20466;-60
2023/09/09 02:52:13;;;;;;;9.43;5.23;;;17.70;99.90;;;18.02;68.25;95341.84;5076256;28;20532;-59
2023/09/09 02:54:41;;;;;;;13.67;5.30;;;17.70;99.90;;;18.00;67.82;95338.56;5082483;28;21006;-60
2023/09/09 02:57:08;;;;;;;12.30;5.77;;;17.60;99.90;;;17.97;68.28;95338.06;5076471;28;21029;-59
2023/09/09 02:59:37;;;;;;;8.50;6.13;;;17.60;99.90;;;17.94;68.22;95333.06;5080218;28;20470;-61
2023/09/09 03:02:04;;;;;;;6.67;4.90;;;17.50;99.90;;;17.90;68.04;95336.09;5073647;28;21256;-61
2023/09/09 03:04:32;;;;;;;16.30;6.30;;;17.50;99.90;;;17.87;67.98;95343.56;5081896;28;20914;-58
2023/09/09 03:07:01;;;;;;;10.27;5.60;;;17.50;99.90;;;17.83;68.41;95335.13;5078816;28;20471;-59
2023/09/09 03:09:29;;;;;;;7.10;6.03;;;17.50;99.90;;;17.80;68.32;95332.78;5080225;28;20565;-62
2023/09/09 03:11:57;;;;;;;8.60;6.60;;;17.40;99.90;;;17.78;68.96;95333.97;5081953;28;20939;-61
2023/09/09 03:14:24;;;;;;;14.57;6.63;;;17.40;99.90;;;17.76;68.60;95334.13;5089501;28;20493;-60
2023/09/09 03:16:51;;;;;;;8.07;6.37;;;17.40;99.90;;;17.74;68.78;95336.16;5082576;28;20454;-60
2023/09/09 03:19:19;;;;;;;16.20;6.63;;;17.40;99.90;;;17.69;69.18;95336.66;5085042;28;20889;-59
2023/09/09 03:21:46;;;;;;;10.93;6.30;;;17.30;99.90;;;17.68;68.85;95339.50;5081225;28;20459;-59
2023/09/09 03:24:15;;;;;;;19.57;5.67;;;17.30;99.90;;;17.67;68.82;95343.16;5081078;28;20470;-61
2023/09/09 03:26:42;;;;;;;21.10;6.20;;;17.30;99.90;;;17.65;69.09;95343.31;5080673;28;20459;-60
2023/09/09 03:29:10;;;;;;;12.80;6.70;;;17.30;99.90;;;17.62;68.99;95338.34;5084137;28;20845;-59
2023/09/09 03:31:37;;;;;;;8.67;5.60;;;17.20;99.90;;;17.60;69.46;95340.34;5080512;28;20465;-62
2023/09/09 03:34:04;;;;;;;9.60;6.17;;;17.20;99.90;;;17.56;69.80;95339.84;5087944;28;20477;-60
2023/09/09 03:36:32;;;;;;;7.40;6.17;;;17.20;99.90;;;17.53;69.40;95345.50;5081089;28;20459;-61
2023/09/09 03:39:03;;;;;;;14.93;6.27;;;17.20;99.90;;;17.51;69.72;95336.06;5083656;28;20482;-59
2023/09/09 03:41:31;;;;;;;8.03;6.30;;;17.10;99.90;;;17.50;69.60;95345.84;5085149;28;20456;-60
2023/09/09 03:43:58;;;;;;;10.50;6.60;;;17.10;99.90;;;17.48;69.89;95349.69;5083989;28;20483;-59
2023/09/09 03:46:26;;;;;;;14.70;7.47;;;17.10;99.90;;;17.47;69.61;95340.88;5084761;28;20953;-61
2023/09/09 03:48:53;;;;;;;11.90;7.10;;;17.10;99.90;;;17.46;69.72;95339.25;5084525;28;20469;-59
2023/09/09 03:51:20;;;;;;;7.20;6.50;;;17.10;99.90;;;17.46;70.10;95339.25;5080930;28;20472;-61
2023/09/09 03:53:47;;;;;;;8.27;5.87;;;17.10;99.90;;;17.45;69.64;95342.88;5083384;28;20467;-61
2023/09/09 03:56:15;;;;;;;11.37;5.53;;;17.10;99.90;;;17.43;70.34;95339.56;5081693;28;20879;-61
2023/09/09 03:58:44;;;;;;;8.07;5.33;;;17.10;99.90;;;17.40;70.39;95345.22;5082441;28;20991;-59
2023/09/09 04:01:13;;;;;;;9.80;6.33;;;17.00;99.90;;;17.39;70.03;95347.03;5084328;28;20446;-60
2023/09/09 04:03:40;;;;;;;6.20;5.60;;;17.00;99.90;;;17.39;70.06;95352.38;5081284;28;20568;-61
2023/09/09 04:06:08;;;;;;;10.37;6.90;;;17.00;99.90;;;17.38;70.52;95344.56;5082420;28;20492;-60
2023/09/09 04:08:36;;;;;;;12.90;7.13;;;17.00;99.90;;;17.37;70.12;95361.53;5081508;28;20477;-60
2023/09/09 04:11:04;;;;;;;12.60;7.53;;;17.00;99.90;;;17.37;70.04;95350.91;5084047;28;20448;-59
2023/09/09 04:13:31;;;;;;;8.20;6.97;;;17.00;99.90;;;17.36;70.58;95349.22;5089929;28;20481;-61
2023/09/09 04:16:00;;;;;;;13.10;7.53;;;17.00;99.90;;;17.35;70.21;95353.72;5090190;28;20488;-61
2023/09/09 04:18:29;;;;;;;9.30;7.60;;;17.00;99.90;;;17.36;70.34;95349.22;5090754;28;20500;-60
2023/09/09 04:20:57;;;;;;;18.60;9.60;;;17.00;99.90;;;17.36;70.43;95355.38;5089080;28;20450;-59
2023/09/09 04:23:24;;;;;;;16.90;9.50;;;17.00;99.90;;;17.37;70.55;95351.72;5089829;28;20442;-60
2023/09/09 04:25:52;;;;;;;15.10;10.00;;;17.00;99.90;;;17.38;70.44;95341.91;5086487;28;20534;-61
2023/09/09 04:28:19;;;;;;;11.83;10.67;;;17.00;99.90;;;17.38;70.60;95348.06;5080287;28;20863;-62
2023/09/09 04:30:46;;;;;;;15.90;9.73;;;17.00;99.90;;;17.41;70.48;95346.88;5078022;28;20443;-61
2023/09/09 04:33:15;;;;;;;26.47;10.20;;;17.00;99.90;;;17.45;70.28;95353.53;5077776;28;20490;-62
2023/09/09 04:35:43;;;;;;;16.27;11.27;;;17.10;99.90;;;17.47;70.51;95342.72;5082404;28;21045;-61
2023/09/09 04:38:10;;;;;;;18.13;12.27;;;17.10;99.90;;;17.51;70.54;95346.69;5084268;28;20831;-62
2023/09/09 04:40:39;;;;;;;21.83;11.90;;;17.10;99.90;;;17.56;70.24;95355.81;5083492;28;20531;-63
2023/09/09 04:43:07;;;;;;;19.47;12.23;;;17.10;99.90;;;17.67;70.61;95345.81;5084394;28;20485;-62
2023/09/09 04:45:34;;;;;;;16.00;11.20;;;17.30;99.90;;;17.77;70.08;95345.59;5082542;28;20450;-61
2023/09/09 04:48:02;;;;;;;17.53;12.73;;;17.30;99.90;;;17.81;69.61;95342.41;5078433;28;20455;-59
2023/09/09 04:50:30;;;;;;;20.03;11.37;;;17.40;99.90;;;17.89;70.10;95350.41;5085635;28;20861;-60
2023/09/09 04:52:58;;;;;;;19.50;10.63;;;17.40;99.90;;;17.95;69.78;95342.72;5084895;28;20993;-61
2023/09/09 04:55:25;;;;;;;17.53;11.00;;;17.50;99.90;;;18.00;69.77;95351.00;5083097;28;20493;-60
2023/09/09 04:57:53;;;;;;;29.57;10.60;;;17.60;99.90;;;18.02;69.76;95344.53;5086090;28;20465;-60
2023/09/09 05:00:20;;;;;;;24.50;10.20;;;17.60;99.90;;;18.04;69.63;95347.00;5080885;28;21160;-60
2023/09/09 05:02:47;;;;;;;92.87;13.20;;;17.60;99.90;;;18.08;69.23;95343.00;5086520;28;20455;-61
2023/09/09 05:05:15;;;;;;;20.37;9.60;;;17.70;99.90;;;18.13;69.05;95340.63;5077543;28;20475;-63
2023/09/09 05:07:43;;;;;;;14.03;9.40;;;17.70;99.90;;;18.19;69.76;95341.78;5085448;28;20446;-61
2023/09/09 05:10:11;;;;;;;18.63;9.63;;;17.80;99.90;;;18.28;69.60;95349.53;5082882;28;20469;-62
2023/09/09 05:12:38;;;;;;;16.93;9.10;;;17.80;99.90;;;18.41;69.73;95348.13;5079205;28;20543;-62
2023/09/09 05:15:10;;;;;;;13.50;8.00;;;18.00;99.90;;;18.52;68.61;95345.06;5078598;28;21011;-61
2023/09/09 05:17:37;;;;;;;17.90;9.07;;;18.10;99.90;;;18.61;68.78;95351.16;5083553;28;20460;-62
2023/09/09 05:20:05;;;;;;;14.00;8.00;;;18.20;99.90;;;18.64;68.00;95340.97;5076522;28;20470;-62
2023/09/09 05:22:32;;;;;;;11.60;8.20;;;18.20;99.90;;;18.64;68.14;95348.13;5080129;28;20592;-60
2023/09/09 05:25:01;;;;;;;18.20;7.13;;;18.20;99.90;;;18.64;67.86;95348.97;5081439;28;20482;-62
2023/09/09 05:27:28;;;;;;;10.00;7.20;;;18.30;99.90;;;18.73;68.31;95346.22;5075580;28;20949;-61
2023/09/09 05:29:55;;;;;;;17.40;7.47;;;18.30;99.90;;;18.84;67.72;95342.31;5078285;28;20578;-61
2023/09/09 05:32:23;;;;;;;19.03;8.17;;;18.40;99.90;;;18.95;67.29;95350.75;5085879;28;20975;-61
2023/09/09 05:34:50;;;;;;;10.27;7.57;;;18.50;99.90;;;19.06;67.46;95354.00;5083017;28;20956;-62
2023/09/09 05:37:17;;;;;;;21.13;7.77;;;18.60;99.90;;;19.16;67.14;95344.72;5081933;28;20508;-62
2023/09/09 05:39:44;;;;;;;18.63;8.37;;;18.70;99.90;;;19.32;67.01;95357.06;5076926;28;20466;-62
2023/09/09 05:42:13;;;;;;;15.80;6.43;;;18.80;99.90;;;19.53;66.42;95359.03;5083713;28;20458;-63
2023/09/09 05:44:40;;;;;;;9.23;6.40;;;19.00;99.90;;;19.73;66.26;95352.31;5084260;28;20497;-61
2023/09/09 05:47:08;;;;;;;14.33;6.60;;;19.20;99.90;;;19.93;65.45;95357.94;5078409;28;20459;-63
2023/09/09 05:49:35;;;;;;;13.13;6.73;;;19.40;99.90;;;20.13;65.21;95358.19;5084110;28;20479;-62
2023/09/09 05:52:02;;;;;;;13.67;6.30;;;19.60;99.90;;;20.36;64.75;95356.19;5082063;28;20820;-61
2023/09/09 05:54:29;;;;;;;13.00;7.53;;;19.80;99.90;;;20.58;64.22;95354.34;5078936;28;20470;-62
2023/09/09 05:56:57;;;;;;;12.73;5.20;;;20.00;99.90;;;20.80;63.77;95353.56;5078106;28;20511;-60
2023/09/09 05:59:26;;;;;;;15.80;7.27;;;20.20;99.90;;;21.03;63.40;95356.84;5079286;28;20470;-59
2023/09/09 06:01:53;;;;;;;13.63;5.63;;;20.40;99.90;;;21.26;62.88;95355.81;5079946;28;20515;-66
2023/09/09 06:04:20;;;;;;;9.17;5.87;;;20.70;99.90;;;21.46;62.24;95364.81;5077935;28;20548;-58
2023/09/09 06:06:47;;;;;;;8.57;6.90;;;20.80;99.90;;;21.67;61.94;95349.72;5082232;28;20458;-58
2023/09/09 06:09:15;;;;;;;9.40;5.23;;;21.00;99.90;;;21.90;61.53;95351.28;5078034;28;20473;-62
2023/09/09 06:11:43;;;;;;;11.13;5.53;;;21.30;99.90;;;22.12;60.75;95352.84;5081860;28;20496;-63
2023/09/09 06:14:10;;;;;;;9.87;5.30;;;21.50;99.90;;;22.40;60.95;95356.47;5081976;28;20548;-63
2023/09/09 06:16:39;;;;;;;9.30;6.23;;;21.70;99.90;;;22.56;59.66;95354.25;5079719;28;20482;-61
2023/09/09 06:19:06;;;;;;;8.57;5.70;;;21.90;99.80;;;22.71;59.09;95351.38;5082738;28;20524;-61
2023/09/09 06:21:33;;;;;;;18.27;6.87;;;22.10;99.30;;;22.89;58.84;95356.16;5076728;28;20989;-64
2023/09/09 06:24:00;;;;;;;8.73;6.23;;;22.30;99.10;;;22.99;58.00;95352.22;5083356;28;20710;-62
2023/09/09 06:26:31;;;;;;;11.27;7.60;;;22.40;98.40;;;23.01;58.59;95355.56;5083630;28;20442;-61
2023/09/09 06:28:59;;;;;;;15.60;6.47;;;22.50;98.10;;;23.11;58.17;95360.53;5080696;28;20482;-61
2023/09/09 06:31:26;;;;;;;11.03;6.53;;;22.50;97.80;;;23.25;57.32;95356.81;5081782;28;20858;-64
2023/09/09 06:33:55;;;;;;;12.50;6.30;;;22.70;97.80;;;23.39;57.58;95363.84;5082209;28;20885;-62
2023/09/09 06:36:22;;;;;;;8.33;6.80;;;22.80;97.60;;;23.60;57.27;95359.25;5078624;28;20498;-62
2023/09/09 06:38:50;;;;;;;8.50;5.87;;;23.00;97.30;;;23.75;56.91;95367.06;5081398;28;20900;-63
2023/09/09 06:41:17;;;;;;;14.73;7.43;;;23.10;96.90;;;23.95;56.51;95349.09;5083770;28;20449;-62
2023/09/09 06:43:44;;;;;;;12.73;6.10;;;23.30;97.00;;;24.20;55.98;95356.44;5078393;28;20470;-64
2023/09/09 06:46:11;;;;;;;7.13;6.47;;;23.50;96.20;;;24.47;55.81;95353.63;5082951;28;20476;-62
2023/09/09 06:48:39;;;;;;;20.77;7.60;;;23.80;96.00;;;24.82;54.67;95361.34;5086790;28;20519;-61
2023/09/09 06:51:07;;;;;;;13.03;7.00;;;24.10;95.70;;;25.18;54.60;95352.56;5084107;28;20462;-60
2023/09/09 06:53:35;;;;;;;11.20;7.70;;;24.40;95.10;;;25.50;53.17;95360.63;5076315;28;21258;-64
2023/09/09 06:56:02;;;;;;;12.90;6.67;;;24.80;94.30;;;25.75;52.29;95359.75;5080375;28;20532;-63
2023/09/09 06:58:29;;;;;;;11.50;7.03;;;25.00;93.10;;;25.91;52.05;95358.34;5077233;28;20871;-60
2023/09/09 07:00:57;;;;;;;8.30;5.90;;;25.20;92.50;;;26.09;51.77;95355.69;5084591;28;20458;-60
2023/09/09 07:03:24;;;;;;;6.20;5.70;;;25.40;92.10;;;26.37;51.56;95357.00;5087070;28;20465;-63
2023/09/09 07:05:51;;;;;;;9.47;6.57;;;25.60;91.80;;;26.67;50.98;95353.53;5083848;28;20993;-63
2023/09/09 07:08:20;;;;;;;7.57;6.60;;;25.90;91.30;;;27.04;50.56;95355.28;5085192;28;20445;-59
2023/09/09 07:10:50;;;;;;;17.73;6.67;;;26.30;90.80;;;27.41;49.61;95360.53;5082142;28;20541;-60
2023/09/09 07:13:18;;;;;;;10.07;5.80;;;26.60;89.80;;;27.78;48.57;95366.53;5085256;28;20453;-63
2023/09/09 07:15:45;;;;;;;9.77;6.50;;;27.00;87.30;;;28.11;47.91;95353.47;5084370;28;20896;-60
2023/09/09 07:18:12;;;;;;;7.00;5.73;;;27.30;85.60;;;28.45;47.22;95365.28;5081767;28;20454;-60
2023/09/09 07:20:41;;;;;;;8.57;6.63;;;27.70;84.50;;;28.79;46.91;95370.81;5083036;28;20453;-60
2023/09/09 07:23:09;;;;;;;8.87;6.07;;;28.00;82.00;;;29.05;45.64;95352.31;5081717;28;20902;-64
2023/09/09 07:25:38;;;;;;;9.50;5.80;;;28.30;80.00;;;29.16;44.77;95359.56;5082991;28;20958;-65
2023/09/09 07:28:06;;;;;;;14.30;5.70;;;28.40;78.90;;;29.39;44.50;95355.91;5081084;28;20978;-65
2023/09/09 07:30:33;;;;;;;10.73;5.87;;;28.60;77.10;;;29.75;44.95;95352.94;5083909;28;20449;-64
2023/09/09 07:33:00;;;;;;;10.60;5.87;;;28.90;76.70;;;30.12;43.33;95366.75;5081704;28;20477;-66
2023/09/09 07:35:28;;;;;;;10.27;5.27;;;29.30;74.90;;;30.38;41.88;95357.06;5085995;28;20481;-60
2023/09/09 07:37:55;;;;;;;8.37;4.90;;;29.50;70.20;;;30.50;42.53;95362.38;5083480;28;20450;-61
2023/09/09 07:40:22;;;;;;;17.30;5.33;;;29.70;70.10;;;30.78;41.03;95360.50;5083926;28;20542;-65
2023/09/09 07:42:53;;;;;;;5.03;4.57;;;29.90;69.20;;;31.25;41.13;95357.19;5084500;28;20491;-63
2023/09/09 07:45:20;;;;;;;17.20;5.03;;;30.40;69.00;;;31.77;40.46;95352.97;5082862;28;20654;-64
2023/09/09 07:47:47;;;;;;;8.67;4.60;;;30.90;66.80;;;32.28;40.04;95363.34;5082420;28;20203;-64
2023/09/09 07:50:14;;;;;;;16.73;4.47;;;31.50;65.90;;;32.78;38.55;95360.31;5082122;28;20215;-61
2023/09/09 07:52:42;;;;;;;5.15;4.20;;;32.10;63.10;;;33.04;36.61;95358.44;5086580;28;20241;-60
2023/09/09 07:55:10;;;;;;;16.95;4.47;;;32.50;58.80;;;33.14;36.09;95344.00;5085844;28;20223;-68
2023/09/09 07:57:37;;;;;;;8.48;4.28;;;32.80;57.60;;;33.25;35.46;95351.16;5081099;28;20200;-61
2023/09/09 08:00:08;;;;;;;12.07;2.95;;;32.90;56.60;;;33.62;34.39;95351.94;5082238;28;20635;-60
2023/09/09 08:02:36;;;;;;;3.92;3.17;;;33.20;55.00;;;34.04;32.87;95348.09;5082562;28;20235;-62
2023/09/09 08:05:06;;;;;;;16.30;4.10;;;33.60;52.90;;;34.33;32.84;95348.28;5081766;28;20220;-60
2023/09/09 08:07:33;;;;;;;7.10;3.30;;;33.90;51.60;;;34.55;32.05;95352.56;5081730;28;20686;-59
2023/09/09 08:10:01;;;;;;;12.27;2.85;;;34.20;49.70;;;34.52;31.41;95353.97;5081541;28;20220;-64
2023/09/09 08:12:29;;;;;;;8.48;3.85;;;34.20;49.30;;;34.58;31.70;95346.53;5078935;28;20207;-59
2023/09/09 08:15:07;;;;;;;7.65;3.47;;;34.20;49.20;;;34.78;30.88;95343.75;5081523;28;20216;-58
2023/09/09 08:17:34;;;;;;;5.68;3.38;;;34.40;48.50;;;35.08;30.74;95341.13;5082676;28;20199;-63
2023/09/09 08:20:06;;;;;;;10.05;3.90;;;34.70;48.10;;;35.40;30.45;95334.31;5080643;28;20892;-66
2023/09/09 08:22:33;;;;;;;5.78;3.50;;;35.10;47.00;;;35.69;29.63;95337.06;5083087;28;20200;-61
2023/09/09 08:25:00;;;;;;;5.60;3.08;;;35.50;46.30;;;35.63;29.17;95322.63;5080465;28;20224;-61
2023/09/09 08:27:28;;;;;;;6.50;3.00;;;35.60;45.70;;;35.69;29.61;95326.94;5080819;28;20665;-60
2023/09/09 08:29:56;;;;;;;2.70;2.38;;;35.70;44.90;;;35.88;28.88;95326.22;5079157;28;20805;-61
2023/09/09 08:32:24;;;;;;;9.10;3.25;;;35.80;44.90;;;35.97;28.47;95327.22;5083747;28;20249;-60
2023/09/09 08:34:53;;;;;;;12.45;3.00;;;36.00;43.30;;;35.87;26.08;95327.34;5080476;28;20254;-60
2023/09/09 08:37:20;;;;;;;4.97;2.67;;;35.90;41.50;;;35.73;27.79;95324.47;5083202;28;20307;-64
2023/09/09 08:39:50;;;;;;;3.00;2.80;;;35.60;42.20;;;35.63;27.07;95321.81;5084869;28;20211;-61
2023/09/09 08:42:31;;;;;;;4.00;2.60;;;35.50;42.00;;;35.71;26.63;95323.91;5083414;28;20207;-61
2023/09/09 08:45:03;;;;;;;7.80;2.85;;;35.50;42.50;;;35.86;27.24;95309.28;5079022;28;20224;-64
2023/09/09 08:47:33;;;;;;;4.57;3.08;;;35.50;42.30;;;35.83;26.43;95315.34;5080754;28;20286;-64
2023/09/09 08:50:01;;;;;;;6.57;3.33;;;35.50;41.70;;;35.84;26.17;95306.84;5081966;28;20223;-64
2023/09/09 08:52:28;;;;;;;2.83;2.35;;;35.40;40.50;;;35.82;26.22;95309.06;5082864;28;20196;-63
2023/09/09 08:54:56;;;;;;;2.97;2.78;;;35.30;40.30;;;35.76;26.03;95312.97;5085420;28;20299;-65
2023/09/09 08:57:25;;;;;;;2.60;2.40;;;35.20;40.30;;;35.72;26.05;95315.41;5081824;28;20292;-66
2023/09/09 08:59:52;;;;;;;3.97;2.50;;;35.20;39.50;;;35.68;24.17;95314.38;5086659;28;20298;-64
2023/09/09 09:02:19;;;;;;;3.30;2.40;;;35.00;37.50;;;35.63;22.54;95306.19;5080551;28;20745;-66
2023/09/09 09:04:48;;;;;;;3.65;2.83;;;35.00;35.30;;;35.62;25.12;95310.06;5080721;28;20261;-65
2023/09/09 09:07:15;;;;;;;3.03;2.83;;;34.90;38.50;;;35.66;24.57;95302.06;5079127;28;20226;-60
2023/09/09 09:09:42;;;;;;;8.35;3.00;;;34.90;38.10;;;35.72;25.34;95298.97;5077470;28;20227;-59
2023/09/09 09:12:10;;;;;;;8.15;3.17;;;35.00;38.30;;;35.69;24.34;95302.31;5089392;28;20202;-60
2023/09/09 09:14:45;;;;;;;4.70;2.80;;;34.90;37.50;;;35.65;24.84;95297.69;5078249;28;20223;-60
2023/09/09 09:17:12;;;;;;;3.88;2.35;;;34.90;37.50;;;35.66;24.17;95299.34;5078540;28;20211;-61
2023/09/09 09:19:39;;;;;;;3.25;2.35;;;34.90;37.90;;;35.64;23.68;95299.63;5081657;28;20266;-59
2023/09/09 09:22:08;;;;;;;6.13;3.05;;;34.90;36.50;;;35.63;23.95;95300.72;5079400;28;20200;-65
2023/09/09 09:24:42;;;;;;;9.00;2.55;;;34.90;36.50;;;35.58;23.89;95295.31;5088285;28;20223;-60
2023/09/09 09:27:10;;;;;;;9.60;3.22;;;34.90;36.50;;;35.41;23.61;95292.19;5079562;28;20283;-60
2023/09/09 09:29:40;;;;;;;3.78;2.42;;;34.70;35.80;;;35.44;23.43;95302.56;5084133;28;20693;-61
2023/09/09 09:32:09;;;;;;;5.30;2.65;;;34.60;37.00;;;35.42;23.46;95291.91;5082162;28;20231;-60
2023/09/09 09:34:36;;;;;;;3.35;3.15;;;34.60;35.50;;;35.35;23.40;95291.41;5087181;28;20215;-65
2023/09/09 09:37:10;;;;;;;5.00;2.53;;;34.50;35.20;;;35.27;23.16;95276.44;5080780;28;20300;-60
2023/09/09 09:39:37;;;;;;;3.15;2.55;;;34.60;36.00;;;35.22;23.12;95284.66;5080612;28;20321;-58
2023/09/09 09:42:05;;;;;;;4.20;2.40;;;34.40;36.20;;;35.24;23.28;95285.19;5078540;28;20204;-66
2023/09/09 09:44:33;;;;;;;4.90;2.40;;;34.40;36.20;;;35.29;23.69;95278.88;5083197;28;20220;-65
2023/09/09 09:47:01;;;;;;;2.83;2.40;;;34.50;36.20;;;35.34;23.06;95276.94;5078735;28;20661;-59
2023/09/09 09:49:36;;;;;;;3.50;2.50;;;34.50;35.60;;;35.32;23.36;95268.22;5079855;28;20310;-59
2023/09/09 09:52:04;;;;;;;3.80;2.30;;;34.50;36.20;;;35.33;24.20;95267.09;5082537;28;20260;-64
2023/09/09 09:54:35;;;;;;;2.70;2.50;;;34.50;36.80;;;35.41;23.99;95271.13;5072940;28;20231;-60
2023/09/09 09:57:03;;;;;;;3.25;2.08;;;34.60;36.00;;;35.44;23.28;95276.00;5080873;28;20215;-65
2023/09/09 09:59:31;;;;;;;2.47;2.13;;;34.60;36.30;;;35.46;22.16;95265.63;5078736;28;20556;-65
2023/09/09 10:01:59;;;;;;;3.00;2.40;;;34.70;35.60;;;35.50;23.09;95263.91;5080784;28;20682;-65
2023/09/09 10:04:27;;;;;;;2.30;2.15;;;34.70;36.00;;;35.58;23.15;95265.22;5082073;28;20319;-60
2023/09/09 10:06:57;;;;;;;2.60;2.40;;;34.70;36.30;;;35.67;21.92;95268.94;5081114;28;20294;-60
2023/09/09 10:09:34;;;;;;;3.90;3.05;;;34.80;34.30;;;35.75;22.58;95266.69;5083797;28;20223;-60
2023/09/09 10:12:05;;;;;;;6.32;4.55;;;34.90;34.80;;;35.77;23.39;95267.22;5088193;28;20208;-58
2023/09/09 10:14:32;;;;;;;5.97;2.25;;;34.90;35.30;;;35.80;22.86;95269.38;5080276;28;20231;-60
2023/09/09 10:16:59;;;;;;;2.15;2.00;;;34.90;35.30;;;35.72;23.41;95254.38;5085541;28;20243;-65
2023/09/09 10:19:27;;;;;;;3.22;2.20;;;34.90;35.10;;;35.63;23.38;95254.19;5080921;28;20219;-61